sensor_id;sensor_type;location;lat;lon;timestamp;P1;durP1;ratioP1;P2;durP2;ratioP2
41887;SDS011;63122;52.424;13.458;2024-02-26T00:04:01;20.87;;;10.87;;
41887;SDS011;63122;52.424;13.458;2024-02-26T00:06:28;27.13;;;12.33;;
41887;SDS011;63122;52.424;13.458;2024-02-26T00:08:40;21.30;;;12.43;;
41887;SDS011;63122;52.424;13.458;2024-02-26T00:10:45;19.10;;;11.93;;
41887;SDS011;63122;52.424;13.458;2024-02-26T00:13:15;20.37;;;11.53;;
41887;SDS011;63122;52.424;13.458;2024-02-26T00:15:49;20.63;;;11.70;;
41887;SDS011;63122;52.424;13.458;2024-02-26T00:18:44;20.03;;;11.30;;
41887;SDS011;63122;52.424;13.458;2024-02-26T00:21:03;18.13;;;10.70;;
41887;SDS011;63122;52.424;13.458;2024-02-26T00:23:26;22.80;;;10.77;;
41887;SDS011;63122;52.424;13.458;2024-02-26T00:25:49;19.40;;;10.97;;
41887;SDS011;63122;52.424;13.458;2024-02-26T00:28:02;17.00;;;9.77;;
41887;SDS011;63122;52.424;13.458;2024-02-26T00:30:12;22.87;;;10.50;;
41887;SDS011;63122;52.424;13.458;2024-02-26T00:32:11;19.40;;;10.07;;
41887;SDS011;63122;52.424;13.458;2024-02-26T00:34:19;24.40;;;11.40;;
41887;SDS011;63122;52.424;13.458;2024-02-26T00:37:34;22.13;;;11.90;;
41887;SDS011;63122;52.424;13.458;2024-02-26T00:45:45;16.97;;;10.03;;
41887;SDS011;63122;52.424;13.458;2024-02-26T00:48:33;19.80;;;10.33;;
41887;SDS011;63122;52.424;13.458;2024-02-26T00:50:57;19.97;;;10.57;;
41887;SDS011;63122;52.424;13.458;2024-02-26T00:53:07;19.57;;;10.77;;
41887;SDS011;63122;52.424;13.458;2024-02-26T00:55:09;16.67;;;10.00;;
41887;SDS011;63122;52.424;13.458;2024-02-26T00:57:08;22.50;;;11.47;;
41887;SDS011;63122;52.424;13.458;2024-02-26T00:59:01;22.13;;;12.03;;
41887;SDS011;63122;52.424;13.458;2024-02-26T01:00:57;19.60;;;11.03;;
41887;SDS011;63122;52.424;13.458;2024-02-26T01:03:07;18.13;;;9.23;;
41887;SDS011;63122;52.424;13.458;2024-02-26T01:05:08;17.80;;;9.63;;
41887;SDS011;63122;52.424;13.458;2024-02-26T01:07:01;21.17;;;9.50;;
41887;SDS011;63122;52.424;13.458;2024-02-26T01:08:57;18.50;;;10.50;;
41887;SDS011;63122;52.424;13.458;2024-02-26T01:10:50;20.47;;;9.50;;
41887;SDS011;63122;52.424;13.458;2024-02-26T01:12:45;17.70;;;9.93;;
41887;SDS011;63122;52.424;13.458;2024-02-26T01:14:41;25.70;;;9.30;;
41887;SDS011;63122;52.424;13.458;2024-02-26T01:16:36;22.73;;;9.90;;
41887;SDS011;63122;52.424;13.458;2024-02-26T01:18:29;14.10;;;9.00;;
41887;SDS011;63122;52.424;13.458;2024-02-26T01:20:27;15.43;;;8.97;;
41887;SDS011;63122;52.424;13.458;2024-02-26T01:22:22;17.30;;;10.17;;
41887;SDS011;63122;52.424;13.458;2024-02-26T01:24:15;18.23;;;9.37;;
41887;SDS011;63122;52.424;13.458;2024-02-26T01:26:11;16.23;;;8.93;;
41887;SDS011;63122;52.424;13.458;2024-02-26T01:28:09;17.93;;;8.90;;
41887;SDS011;63122;52.424;13.458;2024-02-26T01:30:02;15.10;;;8.53;;
41887;SDS011;63122;52.424;13.458;2024-02-26T01:31:58;17.37;;;8.90;;
41887;SDS011;63122;52.424;13.458;2024-02-26T01:33:54;15.57;;;8.47;;
41887;SDS011;63122;52.424;13.458;2024-02-26T01:35:52;15.30;;;8.23;;
41887;SDS011;63122;52.424;13.458;2024-02-26T01:37:47;23.97;;;8.90;;
41887;SDS011;63122;52.424;13.458;2024-02-26T01:39:40;14.27;;;8.47;;
41887;SDS011;63122;52.424;13.458;2024-02-26T01:41:36;13.10;;;8.07;;
41887;SDS011;63122;52.424;13.458;2024-02-26T01:43:31;12.30;;;7.73;;
41887;SDS011;63122;52.424;13.458;2024-02-26T01:45:26;12.07;;;7.80;;
41887;SDS011;63122;52.424;13.458;2024-02-26T01:47:20;16.83;;;8.47;;
41887;SDS011;63122;52.424;13.458;2024-02-26T01:49:16;14.33;;;8.80;;
41887;SDS011;63122;52.424;13.458;2024-02-26T01:51:15;11.70;;;7.87;;
41887;SDS011;63122;52.424;13.458;2024-02-26T01:53:12;15.07;;;8.53;;
41887;SDS011;63122;52.424;13.458;2024-02-26T01:55:08;13.30;;;7.50;;
41887;SDS011;63122;52.424;13.458;2024-02-26T01:57:01;12.90;;;7.97;;
41887;SDS011;63122;52.424;13.458;2024-02-26T01:58:57;13.73;;;8.03;;
41887;SDS011;63122;52.424;13.458;2024-02-26T02:00:53;16.53;;;8.83;;
41887;SDS011;63122;52.424;13.458;2024-02-26T02:02:49;14.33;;;7.33;;
41887;SDS011;63122;52.424;13.458;2024-02-26T02:04:43;15.73;;;7.97;;
41887;SDS011;63122;52.424;13.458;2024-02-26T02:06:42;11.90;;;7.77;;
41887;SDS011;63122;52.424;13.458;2024-02-26T02:08:40;12.47;;;7.83;;
41887;SDS011;63122;52.424;13.458;2024-02-26T02:10:33;15.57;;;8.27;;
41887;SDS011;63122;52.424;13.458;2024-02-26T02:12:30;16.70;;;8.07;;
41887;SDS011;63122;52.424;13.458;2024-02-26T02:14:26;15.17;;;8.07;;
41887;SDS011;63122;52.424;13.458;2024-02-26T02:16:21;12.00;;;8.00;;
41887;SDS011;63122;52.424;13.458;2024-02-26T02:18:16;11.57;;;6.93;;
41887;SDS011;63122;52.424;13.458;2024-02-26T02:20:15;13.27;;;7.53;;
41887;SDS011;63122;52.424;13.458;2024-02-26T02:22:11;14.83;;;7.97;;
41887;SDS011;63122;52.424;13.458;2024-02-26T02:24:06;14.70;;;7.90;;
41887;SDS011;63122;52.424;13.458;2024-02-26T02:25:59;11.90;;;7.37;;
41887;SDS011;63122;52.424;13.458;2024-02-26T02:27:55;10.17;;;6.93;;
41887;SDS011;63122;52.424;13.458;2024-02-26T02:29:51;11.63;;;7.30;;
41887;SDS011;63122;52.424;13.458;2024-02-26T02:31:47;12.20;;;7.97;;
41887;SDS011;63122;52.424;13.458;2024-02-26T02:33:42;15.27;;;8.43;;
41887;SDS011;63122;52.424;13.458;2024-02-26T02:35:35;10.90;;;7.33;;
41887;SDS011;63122;52.424;13.458;2024-02-26T02:37:33;14.90;;;7.70;;
41887;SDS011;63122;52.424;13.458;2024-02-26T02:39:29;11.03;;;7.03;;
41887;SDS011;63122;52.424;13.458;2024-02-26T02:41:24;16.03;;;6.37;;
41887;SDS011;63122;52.424;13.458;2024-02-26T02:43:22;11.53;;;6.70;;
41887;SDS011;63122;52.424;13.458;2024-02-26T02:45:16;13.50;;;6.83;;
41887;SDS011;63122;52.424;13.458;2024-02-26T02:47:12;12.83;;;7.20;;
41887;SDS011;63122;52.424;13.458;2024-02-26T02:49:07;12.57;;;6.53;;
41887;SDS011;63122;52.424;13.458;2024-02-26T02:51:04;9.60;;;5.90;;
41887;SDS011;63122;52.424;13.458;2024-02-26T02:52:59;14.10;;;6.07;;
41887;SDS011;63122;52.424;13.458;2024-02-26T02:54:56;11.97;;;6.73;;
41887;SDS011;63122;52.424;13.458;2024-02-26T02:56:53;12.43;;;6.73;;
41887;SDS011;63122;52.424;13.458;2024-02-26T02:58:46;12.97;;;6.77;;
41887;SDS011;63122;52.424;13.458;2024-02-26T03:00:44;10.00;;;6.40;;
41887;SDS011;63122;52.424;13.458;2024-02-26T03:02:50;11.23;;;6.57;;
41887;SDS011;63122;52.424;13.458;2024-02-26T03:04:49;11.63;;;6.57;;
41887;SDS011;63122;52.424;13.458;2024-02-26T03:06:59;7.90;;;5.57;;
41887;SDS011;63122;52.424;13.458;2024-02-26T03:09:00;10.33;;;6.73;;
41887;SDS011;63122;52.424;13.458;2024-02-26T03:10:58;11.63;;;6.37;;
41887;SDS011;63122;52.424;13.458;2024-02-26T03:12:56;12.53;;;7.23;;
41887;SDS011;63122;52.424;13.458;2024-02-26T03:14:52;15.23;;;6.00;;
41887;SDS011;63122;52.424;13.458;2024-02-26T03:16:50;9.07;;;5.67;;
41887;SDS011;63122;52.424;13.458;2024-02-26T03:18:49;12.97;;;6.63;;
41887;SDS011;63122;52.424;13.458;2024-02-26T03:20:45;8.97;;;5.83;;
41887;SDS011;63122;52.424;13.458;2024-02-26T03:22:48;11.93;;;6.10;;
41887;SDS011;63122;52.424;13.458;2024-02-26T03:24:47;10.67;;;6.00;;
41887;SDS011;63122;52.424;13.458;2024-02-26T03:26:43;9.77;;;6.47;;
41887;SDS011;63122;52.424;13.458;2024-02-26T03:28:37;11.40;;;6.60;;
41887;SDS011;63122;52.424;13.458;2024-02-26T03:30:33;9.67;;;6.00;;
41887;SDS011;63122;52.424;13.458;2024-02-26T03:32:29;9.83;;;6.13;;
41887;SDS011;63122;52.424;13.458;2024-02-26T03:34:25;9.00;;;5.93;;
41887;SDS011;63122;52.424;13.458;2024-02-26T03:36:23;9.50;;;6.17;;
41887;SDS011;63122;52.424;13.458;2024-02-26T03:38:19;10.20;;;6.57;;
41887;SDS011;63122;52.424;13.458;2024-02-26T03:40:18;10.40;;;7.10;;
41887;SDS011;63122;52.424;13.458;2024-02-26T03:42:15;9.10;;;6.30;;
41887;SDS011;63122;52.424;13.458;2024-02-26T03:44:12;9.90;;;6.17;;
41887;SDS011;63122;52.424;13.458;2024-02-26T03:46:08;11.17;;;5.87;;
41887;SDS011;63122;52.424;13.458;2024-02-26T03:48:01;9.30;;;6.03;;
41887;SDS011;63122;52.424;13.458;2024-02-26T03:49:57;10.30;;;6.57;;
41887;SDS011;63122;52.424;13.458;2024-02-26T03:51:54;11.70;;;6.27;;
41887;SDS011;63122;52.424;13.458;2024-02-26T03:53:50;24.10;;;14.60;;
41887;SDS011;63122;52.424;13.458;2024-02-26T03:55:53;8.97;;;6.00;;
41887;SDS011;63122;52.424;13.458;2024-02-26T03:57:49;11.27;;;6.30;;
41887;SDS011;63122;52.424;13.458;2024-02-26T03:59:41;14.53;;;7.30;;
41887;SDS011;63122;52.424;13.458;2024-02-26T04:01:37;11.57;;;6.43;;
41887;SDS011;63122;52.424;13.458;2024-02-26T04:03:32;8.93;;;5.90;;
41887;SDS011;63122;52.424;13.458;2024-02-26T04:05:27;10.40;;;6.20;;
41887;SDS011;63122;52.424;13.458;2024-02-26T04:07:23;9.90;;;6.53;;
41887;SDS011;63122;52.424;13.458;2024-02-26T04:09:18;12.23;;;6.73;;
41887;SDS011;63122;52.424;13.458;2024-02-26T04:11:16;12.33;;;6.80;;
41887;SDS011;63122;52.424;13.458;2024-02-26T04:13:14;10.87;;;7.00;;
41887;SDS011;63122;52.424;13.458;2024-02-26T04:15:07;11.90;;;7.00;;
41887;SDS011;63122;52.424;13.458;2024-02-26T04:17:04;10.13;;;6.53;;
41887;SDS011;63122;52.424;13.458;2024-02-26T04:18:56;11.27;;;6.00;;
41887;SDS011;63122;52.424;13.458;2024-02-26T04:20:52;14.30;;;6.87;;
41887;SDS011;63122;52.424;13.458;2024-02-26T04:22:45;9.23;;;6.80;;
41887;SDS011;63122;52.424;13.458;2024-02-26T04:24:40;10.93;;;6.83;;
41887;SDS011;63122;52.424;13.458;2024-02-26T04:26:35;11.40;;;6.47;;
41887;SDS011;63122;52.424;13.458;2024-02-26T04:28:33;10.20;;;6.47;;
41887;SDS011;63122;52.424;13.458;2024-02-26T04:30:28;12.60;;;7.40;;
41887;SDS011;63122;52.424;13.458;2024-02-26T04:32:23;21.80;;;12.37;;
41887;SDS011;63122;52.424;13.458;2024-02-26T04:34:19;13.63;;;7.57;;
41887;SDS011;63122;52.424;13.458;2024-02-26T04:36:13;11.53;;;7.20;;
41887;SDS011;63122;52.424;13.458;2024-02-26T04:38:08;10.03;;;6.23;;
41887;SDS011;63122;52.424;13.458;2024-02-26T04:40:05;10.77;;;6.87;;
41887;SDS011;63122;52.424;13.458;2024-02-26T04:42:04;11.47;;;7.10;;
41887;SDS011;63122;52.424;13.458;2024-02-26T04:43:57;11.40;;;7.47;;
41887;SDS011;63122;52.424;13.458;2024-02-26T04:45:52;8.70;;;6.57;;
41887;SDS011;63122;52.424;13.458;2024-02-26T04:47:45;12.83;;;6.73;;
41887;SDS011;63122;52.424;13.458;2024-02-26T04:49:40;16.20;;;7.00;;
41887;SDS011;63122;52.424;13.458;2024-02-26T04:51:34;11.80;;;6.73;;
41887;SDS011;63122;52.424;13.458;2024-02-26T04:53:30;10.53;;;6.80;;
41887;SDS011;63122;52.424;13.458;2024-02-26T04:55:26;10.10;;;6.70;;
41887;SDS011;63122;52.424;13.458;2024-02-26T04:57:24;10.70;;;6.73;;
41887;SDS011;63122;52.424;13.458;2024-02-26T04:59:19;17.13;;;7.27;;
41887;SDS011;63122;52.424;13.458;2024-02-26T05:01:12;10.97;;;6.77;;
41887;SDS011;63122;52.424;13.458;2024-02-26T05:03:09;9.57;;;6.40;;
41887;SDS011;63122;52.424;13.458;2024-02-26T05:05:05;9.73;;;6.57;;
41887;SDS011;63122;52.424;13.458;2024-02-26T05:07:02;9.83;;;7.30;;
41887;SDS011;63122;52.424;13.458;2024-02-26T05:08:58;11.43;;;6.90;;
41887;SDS011;63122;52.424;13.458;2024-02-26T05:10:54;13.13;;;7.43;;
41887;SDS011;63122;52.424;13.458;2024-02-26T05:12:49;17.30;;;7.67;;
41887;SDS011;63122;52.424;13.458;2024-02-26T05:14:45;10.87;;;7.07;;
41887;SDS011;63122;52.424;13.458;2024-02-26T05:16:41;10.70;;;7.43;;
41887;SDS011;63122;52.424;13.458;2024-02-26T05:18:37;12.77;;;7.87;;
41887;SDS011;63122;52.424;13.458;2024-02-26T05:20:30;10.43;;;7.00;;
41887;SDS011;63122;52.424;13.458;2024-02-26T05:22:27;13.37;;;7.93;;
41887;SDS011;63122;52.424;13.458;2024-02-26T05:24:22;12.43;;;8.03;;
41887;SDS011;63122;52.424;13.458;2024-02-26T05:26:20;11.73;;;8.60;;
41887;SDS011;63122;52.424;13.458;2024-02-26T05:28:18;12.30;;;8.17;;
41887;SDS011;63122;52.424;13.458;2024-02-26T05:30:15;13.37;;;8.70;;
41887;SDS011;63122;52.424;13.458;2024-02-26T05:32:08;14.30;;;8.73;;
41887;SDS011;63122;52.424;13.458;2024-02-26T05:34:03;14.83;;;8.50;;
41887;SDS011;63122;52.424;13.458;2024-02-26T05:35:56;11.77;;;7.80;;
41887;SDS011;63122;52.424;13.458;2024-02-26T05:37:56;11.57;;;7.97;;
41887;SDS011;63122;52.424;13.458;2024-02-26T05:39:53;11.77;;;7.80;;
41887;SDS011;63122;52.424;13.458;2024-02-26T05:41:45;11.97;;;8.50;;
41887;SDS011;63122;52.424;13.458;2024-02-26T05:43:44;13.53;;;8.40;;
41887;SDS011;63122;52.424;13.458;2024-02-26T05:45:40;12.90;;;8.60;;
41887;SDS011;63122;52.424;13.458;2024-02-26T05:47:35;12.83;;;8.37;;
41887;SDS011;63122;52.424;13.458;2024-02-26T05:49:35;12.23;;;8.40;;
41887;SDS011;63122;52.424;13.458;2024-02-26T05:51:30;16.80;;;8.80;;
41887;SDS011;63122;52.424;13.458;2024-02-26T05:53:25;17.93;;;8.37;;
41887;SDS011;63122;52.424;13.458;2024-02-26T05:55:21;13.70;;;8.70;;
41887;SDS011;63122;52.424;13.458;2024-02-26T05:57:16;14.83;;;8.63;;
41887;SDS011;63122;52.424;13.458;2024-02-26T05:59:15;15.93;;;8.97;;
41887;SDS011;63122;52.424;13.458;2024-02-26T06:01:12;15.20;;;9.23;;
41887;SDS011;63122;52.424;13.458;2024-02-26T06:03:07;16.70;;;9.20;;
41887;SDS011;63122;52.424;13.458;2024-02-26T06:05:03;13.97;;;8.90;;
41887;SDS011;63122;52.424;13.458;2024-02-26T06:06:57;12.93;;;9.07;;
41887;SDS011;63122;52.424;13.458;2024-02-26T06:08:55;19.60;;;9.53;;
41887;SDS011;63122;52.424;13.458;2024-02-26T06:10:47;13.50;;;8.80;;
41887;SDS011;63122;52.424;13.458;2024-02-26T06:12:43;17.20;;;9.60;;
41887;SDS011;63122;52.424;13.458;2024-02-26T06:14:41;16.50;;;9.50;;
41887;SDS011;63122;52.424;13.458;2024-02-26T06:16:36;17.30;;;10.50;;
41887;SDS011;63122;52.424;13.458;2024-02-26T06:18:32;15.27;;;9.83;;
41887;SDS011;63122;52.424;13.458;2024-02-26T06:20:28;14.73;;;9.87;;
41887;SDS011;63122;52.424;13.458;2024-02-26T06:22:23;15.00;;;10.33;;
41887;SDS011;63122;52.424;13.458;2024-02-26T06:24:17;14.80;;;9.77;;
41887;SDS011;63122;52.424;13.458;2024-02-26T06:26:13;17.20;;;10.67;;
41887;SDS011;63122;52.424;13.458;2024-02-26T06:28:09;19.27;;;10.67;;
41887;SDS011;63122;52.424;13.458;2024-02-26T06:30:07;18.17;;;11.20;;
41887;SDS011;63122;52.424;13.458;2024-02-26T06:32:04;16.53;;;11.17;;
41887;SDS011;63122;52.424;13.458;2024-02-26T06:33:59;19.40;;;12.27;;
41887;SDS011;63122;52.424;13.458;2024-02-26T06:35:56;18.83;;;12.30;;
41887;SDS011;63122;52.424;13.458;2024-02-26T06:37:48;24.90;;;12.70;;
41887;SDS011;63122;52.424;13.458;2024-02-26T06:39:45;19.27;;;12.03;;
41887;SDS011;63122;52.424;13.458;2024-02-26T06:41:41;19.70;;;11.70;;
41887;SDS011;63122;52.424;13.458;2024-02-26T06:43:39;22.13;;;12.30;;
41887;SDS011;63122;52.424;13.458;2024-02-26T06:45:37;21.23;;;11.60;;
41887;SDS011;63122;52.424;13.458;2024-02-26T06:47:32;21.87;;;11.43;;
41887;SDS011;63122;52.424;13.458;2024-02-26T06:49:28;19.97;;;11.40;;
41887;SDS011;63122;52.424;13.458;2024-02-26T06:51:24;22.20;;;11.77;;
41887;SDS011;63122;52.424;13.458;2024-02-26T06:53:16;19.33;;;12.23;;
41887;SDS011;63122;52.424;13.458;2024-02-26T06:55:12;17.83;;;11.33;;
41887;SDS011;63122;52.424;13.458;2024-02-26T06:57:05;18.30;;;12.57;;
41887;SDS011;63122;52.424;13.458;2024-02-26T06:59:01;17.77;;;11.57;;
41887;SDS011;63122;52.424;13.458;2024-02-26T07:00:57;25.17;;;12.73;;
41887;SDS011;63122;52.424;13.458;2024-02-26T07:02:53;17.60;;;11.70;;
41887;SDS011;63122;52.424;13.458;2024-02-26T07:04:49;18.37;;;12.47;;
41887;SDS011;63122;52.424;13.458;2024-02-26T07:06:45;23.07;;;12.13;;
41887;SDS011;63122;52.424;13.458;2024-02-26T07:08:40;17.50;;;11.07;;
41887;SDS011;63122;52.424;13.458;2024-02-26T07:10:36;22.30;;;12.20;;
41887;SDS011;63122;52.424;13.458;2024-02-26T07:12:32;18.83;;;12.40;;
41887;SDS011;63122;52.424;13.458;2024-02-26T07:14:25;18.97;;;12.87;;
41887;SDS011;63122;52.424;13.458;2024-02-26T07:16:23;21.67;;;12.27;;
41887;SDS011;63122;52.424;13.458;2024-02-26T07:18:19;24.53;;;12.50;;
41887;SDS011;63122;52.424;13.458;2024-02-26T07:20:15;24.30;;;13.23;;
41887;SDS011;63122;52.424;13.458;2024-02-26T07:22:11;25.00;;;13.03;;
41887;SDS011;63122;52.424;13.458;2024-02-26T07:24:07;19.70;;;12.23;;
41887;SDS011;63122;52.424;13.458;2024-02-26T07:26:01;22.87;;;12.93;;
41887;SDS011;63122;52.424;13.458;2024-02-26T07:27:56;20.83;;;12.50;;
41887;SDS011;63122;52.424;13.458;2024-02-26T07:29:52;21.33;;;13.07;;
41887;SDS011;63122;52.424;13.458;2024-02-26T07:31:51;18.90;;;13.50;;
41887;SDS011;63122;52.424;13.458;2024-02-26T07:33:46;17.97;;;12.70;;
41887;SDS011;63122;52.424;13.458;2024-02-26T07:35:39;23.57;;;14.77;;
41887;SDS011;63122;52.424;13.458;2024-02-26T07:37:37;22.50;;;14.10;;
41887;SDS011;63122;52.424;13.458;2024-02-26T07:39:33;24.90;;;12.70;;
41887;SDS011;63122;52.424;13.458;2024-02-26T07:41:29;19.30;;;12.30;;
41887;SDS011;63122;52.424;13.458;2024-02-26T07:43:25;19.37;;;12.53;;
41887;SDS011;63122;52.424;13.458;2024-02-26T07:45:21;21.03;;;13.03;;
41887;SDS011;63122;52.424;13.458;2024-02-26T07:47:16;26.07;;;13.27;;
41887;SDS011;63122;52.424;13.458;2024-02-26T07:49:12;29.50;;;14.17;;
41887;SDS011;63122;52.424;13.458;2024-02-26T07:51:07;22.23;;;12.77;;
41887;SDS011;63122;52.424;13.458;2024-02-26T07:53:03;20.23;;;12.63;;
41887;SDS011;63122;52.424;13.458;2024-02-26T07:54:58;22.27;;;13.53;;
41887;SDS011;63122;52.424;13.458;2024-02-26T07:56:58;33.83;;;20.70;;
41887;SDS011;63122;52.424;13.458;2024-02-26T07:58:55;47.13;;;25.53;;
41887;SDS011;63122;52.424;13.458;2024-02-26T08:00:48;36.57;;;22.73;;
41887;SDS011;63122;52.424;13.458;2024-02-26T08:02:46;25.17;;;16.77;;
41887;SDS011;63122;52.424;13.458;2024-02-26T08:04:42;23.20;;;14.40;;
41887;SDS011;63122;52.424;13.458;2024-02-26T08:06:35;25.40;;;16.57;;
41887;SDS011;63122;52.424;13.458;2024-02-26T08:08:30;22.30;;;14.03;;
41887;SDS011;63122;52.424;13.458;2024-02-26T08:10:23;23.17;;;13.43;;
41887;SDS011;63122;52.424;13.458;2024-02-26T08:12:21;25.13;;;15.37;;
41887;SDS011;63122;52.424;13.458;2024-02-26T08:14:14;24.07;;;15.23;;
41887;SDS011;63122;52.424;13.458;2024-02-26T08:16:10;21.47;;;13.90;;
41887;SDS011;63122;52.424;13.458;2024-02-26T08:18:07;20.47;;;12.47;;
41887;SDS011;63122;52.424;13.458;2024-02-26T08:20:04;24.50;;;14.57;;
41887;SDS011;63122;52.424;13.458;2024-02-26T08:21:58;23.63;;;13.83;;
41887;SDS011;63122;52.424;13.458;2024-02-26T08:23:56;24.37;;;13.83;;
41887;SDS011;63122;52.424;13.458;2024-02-26T08:25:52;21.43;;;12.90;;
41887;SDS011;63122;52.424;13.458;2024-02-26T08:27:49;25.57;;;14.07;;
41887;SDS011;63122;52.424;13.458;2024-02-26T08:29:45;24.00;;;14.43;;
41887;SDS011;63122;52.424;13.458;2024-02-26T08:31:40;21.27;;;13.40;;
41887;SDS011;63122;52.424;13.458;2024-02-26T08:33:38;26.07;;;13.63;;
41887;SDS011;63122;52.424;13.458;2024-02-26T08:35:31;21.13;;;12.83;;
41887;SDS011;63122;52.424;13.458;2024-02-26T08:37:27;21.03;;;12.53;;
41887;SDS011;63122;52.424;13.458;2024-02-26T08:39:22;22.10;;;12.90;;
41887;SDS011;63122;52.424;13.458;2024-02-26T08:41:18;29.23;;;13.17;;
41887;SDS011;63122;52.424;13.458;2024-02-26T08:43:15;19.67;;;12.37;;
41887;SDS011;63122;52.424;13.458;2024-02-26T08:45:11;23.67;;;13.27;;
41887;SDS011;63122;52.424;13.458;2024-02-26T08:47:07;28.00;;;12.90;;
41887;SDS011;63122;52.424;13.458;2024-02-26T08:49:02;19.97;;;12.87;;
41887;SDS011;63122;52.424;13.458;2024-02-26T08:50:58;20.87;;;12.80;;
41887;SDS011;63122;52.424;13.458;2024-02-26T08:52:50;31.33;;;13.97;;
41887;SDS011;63122;52.424;13.458;2024-02-26T08:54:49;25.87;;;13.27;;
41887;SDS011;63122;52.424;13.458;2024-02-26T08:56:44;21.73;;;13.63;;
41887;SDS011;63122;52.424;13.458;2024-02-26T08:58:40;24.00;;;13.03;;
41887;SDS011;63122;52.424;13.458;2024-02-26T09:00:36;21.87;;;13.03;;
41887;SDS011;63122;52.424;13.458;2024-02-26T09:02:32;30.90;;;14.40;;
41887;SDS011;63122;52.424;13.458;2024-02-26T09:04:30;20.43;;;13.70;;
41887;SDS011;63122;52.424;13.458;2024-02-26T09:06:26;21.97;;;13.77;;
41887;SDS011;63122;52.424;13.458;2024-02-26T09:08:22;27.57;;;15.67;;
41887;SDS011;63122;52.424;13.458;2024-02-26T09:10:18;24.73;;;13.93;;
41887;SDS011;63122;52.424;13.458;2024-02-26T09:12:10;24.27;;;13.30;;
41887;SDS011;63122;52.424;13.458;2024-02-26T09:14:06;28.23;;;15.20;;
41887;SDS011;63122;52.424;13.458;2024-02-26T09:16:00;22.00;;;14.13;;
41887;SDS011;63122;52.424;13.458;2024-02-26T09:17:55;20.57;;;13.63;;
41887;SDS011;63122;52.424;13.458;2024-02-26T09:19:53;25.90;;;12.70;;
41887;SDS011;63122;52.424;13.458;2024-02-26T09:21:49;21.07;;;13.17;;
41887;SDS011;63122;52.424;13.458;2024-02-26T09:23:46;22.43;;;13.40;;
41887;SDS011;63122;52.424;13.458;2024-02-26T09:25:42;27.60;;;13.80;;
41887;SDS011;63122;52.424;13.458;2024-02-26T09:27:34;23.90;;;13.73;;
41887;SDS011;63122;52.424;13.458;2024-02-26T09:29:35;20.27;;;13.17;;
41887;SDS011;63122;52.424;13.458;2024-02-26T09:31:30;23.00;;;14.10;;
41887;SDS011;63122;52.424;13.458;2024-02-26T09:33:26;27.27;;;13.90;;
41887;SDS011;63122;52.424;13.458;2024-02-26T09:35:24;20.50;;;14.40;;
41887;SDS011;63122;52.424;13.458;2024-02-26T09:37:21;24.17;;;13.47;;
41887;SDS011;63122;52.424;13.458;2024-02-26T09:39:16;20.97;;;13.33;;
41887;SDS011;63122;52.424;13.458;2024-02-26T09:41:14;18.40;;;12.77;;
41887;SDS011;63122;52.424;13.458;2024-02-26T09:43:10;20.67;;;13.30;;
41887;SDS011;63122;52.424;13.458;2024-02-26T09:45:11;26.03;;;12.77;;
41887;SDS011;63122;52.424;13.458;2024-02-26T09:47:12;20.13;;;13.10;;
41887;SDS011;63122;52.424;13.458;2024-02-26T09:49:12;23.83;;;13.33;;
41887;SDS011;63122;52.424;13.458;2024-02-26T09:51:11;21.30;;;12.97;;
41887;SDS011;63122;52.424;13.458;2024-02-26T09:53:10;21.67;;;12.80;;
41887;SDS011;63122;52.424;13.458;2024-02-26T09:55:07;21.07;;;11.87;;
41887;SDS011;63122;52.424;13.458;2024-02-26T09:57:02;23.00;;;13.17;;
41887;SDS011;63122;52.424;13.458;2024-02-26T09:58:59;17.43;;;11.83;;
41887;SDS011;63122;52.424;13.458;2024-02-26T10:00:59;20.67;;;12.23;;
41887;SDS011;63122;52.424;13.458;2024-02-26T10:02:56;19.30;;;11.57;;
41887;SDS011;63122;52.424;13.458;2024-02-26T10:04:52;25.60;;;12.00;;
41887;SDS011;63122;52.424;13.458;2024-02-26T10:06:52;20.60;;;11.93;;
41887;SDS011;63122;52.424;13.458;2024-02-26T10:08:48;23.13;;;12.77;;
41887;SDS011;63122;52.424;13.458;2024-02-26T10:10:45;23.90;;;12.23;;
41887;SDS011;63122;52.424;13.458;2024-02-26T10:12:41;23.17;;;11.97;;
41887;SDS011;63122;52.424;13.458;2024-02-26T10:14:36;19.57;;;11.53;;
41887;SDS011;63122;52.424;13.458;2024-02-26T10:16:29;16.13;;;11.13;;
41887;SDS011;63122;52.424;13.458;2024-02-26T10:18:25;20.63;;;12.43;;
41887;SDS011;63122;52.424;13.458;2024-02-26T10:20:29;18.13;;;11.07;;
41887;SDS011;63122;52.424;13.458;2024-02-26T10:22:27;19.60;;;11.10;;
41887;SDS011;63122;52.424;13.458;2024-02-26T10:24:22;18.83;;;10.50;;
41887;SDS011;63122;52.424;13.458;2024-02-26T10:26:15;20.10;;;11.47;;
41887;SDS011;63122;52.424;13.458;2024-02-26T10:28:12;16.57;;;11.13;;
41887;SDS011;63122;52.424;13.458;2024-02-26T10:30:15;15.90;;;10.53;;
41887;SDS011;63122;52.424;13.458;2024-02-26T10:32:13;16.57;;;10.13;;
41887;SDS011;63122;52.424;13.458;2024-02-26T10:34:09;18.17;;;10.60;;
41887;SDS011;63122;52.424;13.458;2024-02-26T10:36:05;16.40;;;10.23;;
41887;SDS011;63122;52.424;13.458;2024-02-26T10:38:05;16.47;;;9.97;;
41887;SDS011;63122;52.424;13.458;2024-02-26T10:40:01;16.20;;;10.10;;
41887;SDS011;63122;52.424;13.458;2024-02-26T10:41:57;16.80;;;10.23;;
41887;SDS011;63122;52.424;13.458;2024-02-26T10:43:59;15.87;;;10.20;;
41887;SDS011;63122;52.424;13.458;2024-02-26T10:45:54;15.60;;;10.13;;
41887;SDS011;63122;52.424;13.458;2024-02-26T10:47:50;13.70;;;8.97;;
41887;SDS011;63122;52.424;13.458;2024-02-26T10:49:46;22.30;;;9.97;;
41887;SDS011;63122;52.424;13.458;2024-02-26T10:51:44;16.30;;;9.73;;
41887;SDS011;63122;52.424;13.458;2024-02-26T10:53:42;17.90;;;9.70;;
41887;SDS011;63122;52.424;13.458;2024-02-26T10:55:40;15.80;;;9.70;;
41887;SDS011;63122;52.424;13.458;2024-02-26T10:57:37;17.57;;;9.10;;
41887;SDS011;63122;52.424;13.458;2024-02-26T10:59:32;14.63;;;9.98;;
41887;SDS011;63122;52.424;13.458;2024-02-26T11:01:29;12.55;;;8.77;;
41887;SDS011;63122;52.424;13.458;2024-02-26T11:03:28;14.07;;;8.88;;
41887;SDS011;63122;52.424;13.458;2024-02-26T11:05:28;12.48;;;8.70;;
41887;SDS011;63122;52.424;13.458;2024-02-26T11:07:25;17.25;;;9.68;;
41887;SDS011;63122;52.424;13.458;2024-02-26T11:09:25;14.38;;;9.48;;
41887;SDS011;63122;52.424;13.458;2024-02-26T11:11:22;16.80;;;9.20;;
41887;SDS011;63122;52.424;13.458;2024-02-26T11:13:17;15.75;;;8.38;;
41887;SDS011;63122;52.424;13.458;2024-02-26T11:15:14;14.18;;;8.25;;
41887;SDS011;63122;52.424;13.458;2024-02-26T11:17:11;12.27;;;8.30;;
41887;SDS011;63122;52.424;13.458;2024-02-26T11:19:06;12.15;;;7.97;;
41887;SDS011;63122;52.424;13.458;2024-02-26T11:21:04;14.88;;;8.55;;
41887;SDS011;63122;52.424;13.458;2024-02-26T11:23:00;13.27;;;7.30;;
41887;SDS011;63122;52.424;13.458;2024-02-26T11:24:58;13.20;;;7.63;;
41887;SDS011;63122;52.424;13.458;2024-02-26T11:26:54;11.13;;;7.00;;
41887;SDS011;63122;52.424;13.458;2024-02-26T11:28:53;13.48;;;8.23;;
41887;SDS011;63122;52.424;13.458;2024-02-26T11:30:49;14.68;;;8.30;;
41887;SDS011;63122;52.424;13.458;2024-02-26T11:32:46;16.58;;;7.60;;